Time;durP1;ratioP1;P1;durP2;ratioP2;P2;SDS_P1;SDS_P2;PMS_P1;PMS_P2;Temp;Humidity;BMP_temperature;BMP_pressure;BME280_temperature;BME280_humidity;BME280_pressure;Samples;Min_cycle;Max_cycle;Signal;HPM_P1;HPM_P2
2021/12/26 20:37:44;;;;;;;27.58;13.48;;;;;;;;;;5113416;23;20050;-61
2021/12/26 20:40:11;;;;;;;27.30;13.00;;;;;;;;;;4954884;28;20553;-62
2021/12/26 20:42:38;;;;;;;24.70;12.93;;;;;;;;;;4955115;28;20142;-62
2021/12/26 20:45:07;;;;;;;25.58;13.02;;;;;;;;;;4954340;28;20066;-62
2021/12/26 20:47:33;;;;;;;24.85;12.95;;;;;;;;;;4954143;28;20145;-63
2021/12/26 20:50:01;;;;;;;25.05;12.88;;;;;;;;;;4955037;28;20130;-61
2021/12/26 20:52:27;;;;;;;23.85;12.35;;;;;;;;;;4953022;28;20050;-61
2021/12/26 20:54:55;;;;;;;26.02;12.70;;;;;;;;;;4953609;28;20057;-62
2021/12/26 20:57:22;;;;;;;22.15;12.15;;;;;;;;;;4953716;28;20078;-60
2021/12/26 20:59:48;;;;;;;27.73;13.77;;;;;;;;;;4954319;28;20395;-62
2021/12/26 21:02:15;;;;;;;22.98;12.70;;;;;;;;;;4953784;28;20047;-60
2021/12/26 21:04:41;;;;;;;23.92;12.50;;;;;;;;;;4951659;28;20055;-58
2021/12/26 21:07:08;;;;;;;24.92;12.65;;;;;;;;;;4954747;28;20280;-62
2021/12/26 21:09:35;;;;;;;25.55;12.68;;;;;;;;;;4953683;28;20053;-60
2021/12/26 21:12:04;;;;;;;25.13;14.00;;;;;;;;;;4952930;28;20137;-61
2021/12/26 21:14:30;;;;;;;24.83;13.70;;;;;;;;;;4950838;28;20529;-62
2021/12/26 21:16:57;;;;;;;27.80;14.48;;;;;;;;;;4954057;28;20050;-61
2021/12/26 21:19:24;;;;;;;23.45;12.68;;;;;;;;;;4933519;28;20078;-61
2021/12/26 21:21:51;;;;;;;22.67;12.00;;;;;;;;;;4952229;28;20649;-61
2021/12/26 21:24:17;;;;;;;21.63;11.82;;;;;;;;;;4951562;28;20516;-61
2021/12/26 21:26:44;;;;;;;22.90;12.65;;;;;;;;;;4955323;28;20047;-60
2021/12/26 21:29:12;;;;;;;23.70;12.75;;;;;;;;;;4953515;28;20733;-56
2021/12/26 21:31:39;;;;;;;25.58;13.35;;;;;;;;;;4952223;28;20426;-61
2021/12/26 21:34:05;;;;;;;24.85;13.60;;;;;;;;;;4953585;28;20061;-61
2021/12/26 21:36:32;;;;;;;22.08;11.32;;;;;;;;;;4938280;28;20061;-62
2021/12/26 21:38:58;;;;;;;21.58;12.15;;;;;;;;;;4945002;28;20061;-62
2021/12/26 21:41:25;;;;;;;23.25;12.75;;;;;;;;;;4944915;28;20061;-60
2021/12/26 21:43:52;;;;;;;22.77;12.30;;;;;;;;;;4944534;28;20745;-62
2021/12/26 21:46:22;;;;;;;19.50;12.07;;;;;;;;;;4944261;28;20038;-59
2021/12/26 21:48:48;;;;;;;24.25;11.80;;;;;;;;;;4943310;28;20436;-60
2021/12/26 21:51:15;;;;;;;21.80;12.18;;;;;;;;;;4941274;28;20174;-56
2021/12/26 21:53:42;;;;;;;21.67;12.07;;;;;;;;;;4942984;28;20051;-60
2021/12/26 21:56:08;;;;;;;23.63;13.25;;;;;;;;;;4943636;28;20142;-61
2021/12/26 21:58:35;;;;;;;25.80;12.88;;;;;;;;;;4940612;28;20048;-60
2021/12/26 22:01:02;;;;;;;22.52;11.20;;;;;;;;;;4942937;28;20050;-62
2021/12/26 22:03:32;;;;;;;19.42;11.10;;;;;;;;;;4944306;28;20047;-60
2021/12/26 22:05:59;;;;;;;20.55;11.52;;;;;;;;;;4941436;28;20101;-60
2021/12/26 22:08:26;;;;;;;22.45;12.98;;;;;;;;;;4943586;28;21640;-61
2021/12/26 22:10:52;;;;;;;21.08;12.20;;;;;;;;;;4941655;28;20055;-61
2021/12/26 22:13:19;;;;;;;19.38;11.27;;;;;;;;;;4946349;28;20058;-61
2021/12/26 22:15:45;;;;;;;23.77;12.32;;;;;;;;;;4943984;28;20663;-61
2021/12/26 22:18:12;;;;;;;19.27;12.07;;;;;;;;;;4942854;28;20134;-60
2021/12/26 22:20:40;;;;;;;17.13;10.60;;;;;;;;;;4945001;28;20061;-60
2021/12/26 22:23:07;;;;;;;20.50;11.27;;;;;;;;;;4940501;28;20146;-61
2021/12/26 22:25:35;;;;;;;19.85;11.07;;;;;;;;;;4944770;28;20146;-61
2021/12/26 22:28:02;;;;;;;21.42;12.05;;;;;;;;;;4942847;28;20685;-61
2021/12/26 22:30:28;;;;;;;21.10;11.15;;;;;;;;;;4944390;28;20154;-61
2021/12/26 22:32:55;;;;;;;18.35;11.18;;;;;;;;;;4943348;28;20255;-61
2021/12/26 22:35:22;;;;;;;17.83;10.93;;;;;;;;;;4938755;28;20058;-61
2021/12/26 22:37:51;;;;;;;18.38;10.48;;;;;;;;;;4941408;28;20141;-59
2021/12/26 22:40:19;;;;;;;19.20;11.98;;;;;;;;;;4944478;28;20047;-61
2021/12/26 22:42:46;;;;;;;17.23;10.07;;;;;;;;;;4942589;28;20049;-61
2021/12/26 22:45:13;;;;;;;20.98;11.82;;;;;;;;;;4940089;28;20147;-61
2021/12/26 22:47:40;;;;;;;18.00;10.38;;;;;;;;;;4939202;28;20691;-60
2021/12/26 22:50:09;;;;;;;16.92;9.52;;;;;;;;;;4942338;28;20086;-61
2021/12/26 22:52:35;;;;;;;17.48;10.32;;;;;;;;;;4942303;28;20051;-61
2021/12/26 22:55:05;;;;;;;16.45;10.45;;;;;;;;;;4942645;28;20051;-61
2021/12/26 22:57:31;;;;;;;17.23;10.20;;;;;;;;;;4941702;28;20055;-62
2021/12/26 22:59:58;;;;;;;17.55;9.75;;;;;;;;;;4944082;28;20047;-60
2021/12/26 23:02:25;;;;;;;18.10;10.55;;;;;;;;;;4940801;28;20539;-62
2021/12/26 23:04:55;;;;;;;13.88;9.20;;;;;;;;;;4926942;28;20065;-61
2021/12/26 23:07:21;;;;;;;16.40;9.55;;;;;;;;;;4919333;28;20996;-61
2021/12/26 23:09:48;;;;;;;15.98;9.40;;;;;;;;;;4929254;28;20061;-60
2021/12/26 23:12:16;;;;;;;17.67;9.65;;;;;;;;;;4940856;28;20051;-60
2021/12/26 23:14:42;;;;;;;18.85;10.65;;;;;;;;;;4926050;28;20050;-61
2021/12/26 23:17:09;;;;;;;15.45;9.73;;;;;;;;;;4933114;28;20057;-60
2021/12/26 23:19:36;;;;;;;17.75;9.52;;;;;;;;;;4925948;28;20052;-62
2021/12/26 23:22:03;;;;;;;18.50;10.45;;;;;;;;;;4924004;28;20070;-60
2021/12/26 23:24:29;;;;;;;19.67;10.45;;;;;;;;;;4923595;28;20508;-61
2021/12/26 23:26:56;;;;;;;21.35;11.32;;;;;;;;;;4927720;28;20061;-62
2021/12/26 23:29:23;;;;;;;18.98;9.65;;;;;;;;;;4933612;28;20142;-61
2021/12/26 23:31:50;;;;;;;15.77;10.50;;;;;;;;;;4930147;28;20057;-61
2021/12/26 23:34:18;;;;;;;16.40;9.80;;;;;;;;;;4929045;28;20057;-61
2021/12/26 23:36:45;;;;;;;16.30;8.80;;;;;;;;;;4925205;28;20063;-61
2021/12/26 23:39:11;;;;;;;17.58;9.40;;;;;;;;;;4936266;28;20059;-61
2021/12/26 23:41:41;;;;;;;17.58;9.50;;;;;;;;;;4934613;28;20056;-61
2021/12/26 23:44:09;;;;;;;17.95;9.48;;;;;;;;;;4934341;28;20284;-61
2021/12/26 23:46:38;;;;;;;22.63;12.27;;;;;;;;;;4937656;28;20826;-61
2021/12/26 23:49:04;;;;;;;22.35;12.23;;;;;;;;;;4927850;28;20049;-61
2021/12/26 23:51:32;;;;;;;23.05;11.18;;;;;;;;;;4927835;28;20210;-61
2021/12/26 23:53:58;;;;;;;30.58;14.82;;;;;;;;;;4933114;28;20066;-60
2021/12/26 23:56:29;;;;;;;21.20;10.90;;;;;;;;;;4940586;28;20750;-60
2021/12/26 23:58:57;;;;;;;20.38;11.05;;;;;;;;;;4930658;28;20150;-58
